Time;durP1;ratioP1;P1;durP2;ratioP2;P2;SDS_P1;SDS_P2;PMS_P1;PMS_P2;Temp;Humidity;BMP_temperature;BMP_pressure;BME280_temperature;BME280_humidity;BME280_pressure;Samples;Min_cycle;Max_cycle;Signal;HPM_P1;HPM_P2
2021/07/13 00:02:06;;;;;;;4.17;3.10;;;20.00;99.90;;;;;;4994158;28;20291;-51
2021/07/13 00:04:34;;;;;;;4.10;3.10;;;20.00;99.90;;;;;;4992367;28;20238;-51
2021/07/13 00:07:01;;;;;;;3.70;2.73;;;20.10;99.90;;;;;;4993482;28;20207;-51
2021/07/13 00:09:28;;;;;;;3.30;3.00;;;20.10;99.90;;;;;;4993342;28;20298;-51
2021/07/13 00:11:56;;;;;;;3.97;2.90;;;20.10;99.90;;;;;;4993685;28;20293;-51
2021/07/13 00:14:23;;;;;;;3.47;3.17;;;20.10;99.90;;;;;;4995769;28;20338;-50
2021/07/13 00:16:50;;;;;;;4.30;3.90;;;19.90;99.90;;;;;;4989390;28;20299;-51
2021/07/13 00:19:18;;;;;;;4.17;3.47;;;19.80;99.90;;;;;;4987905;28;20601;-51
2021/07/13 00:21:45;;;;;;;4.57;3.70;;;19.90;99.90;;;;;;4984867;28;20605;-51
2021/07/13 00:24:13;;;;;;;3.83;2.80;;;20.00;99.90;;;;;;4983624;28;20574;-51
2021/07/13 00:26:40;;;;;;;3.40;3.10;;;20.00;99.90;;;;;;4981805;28;20659;-51
2021/07/13 00:29:07;;;;;;;3.53;3.17;;;20.10;99.90;;;;;;4983627;28;20208;-51
2021/07/13 00:31:34;;;;;;;4.70;3.00;;;20.10;99.90;;;;;;4991554;28;20253;-51
2021/07/13 00:34:01;;;;;;;4.23;3.73;;;20.10;99.90;;;;;;4993500;28;20204;-51
2021/07/13 00:36:28;;;;;;;4.80;3.90;;;20.10;99.90;;;;;;4990706;28;20204;-51
2021/07/13 00:38:55;;;;;;;4.10;3.70;;;20.20;99.90;;;;;;4995221;28;20636;-51
2021/07/13 00:41:22;;;;;;;4.87;4.00;;;20.30;99.90;;;;;;4994502;28;20792;-51
2021/07/13 00:43:49;;;;;;;3.97;3.67;;;20.30;99.90;;;;;;4994236;28;20312;-51
2021/07/13 00:46:16;;;;;;;4.20;3.80;;;20.10;99.90;;;;;;4995231;28;20633;-51
2021/07/13 00:48:42;;;;;;;5.87;4.20;;;20.20;99.90;;;;;;4997857;28;20238;-51
2021/07/13 00:51:11;;;;;;;5.00;3.70;;;20.20;99.90;;;;;;4990780;28;20640;-51
2021/07/13 00:53:42;;;;;;;4.43;3.20;;;20.20;99.90;;;;;;4996213;28;20264;-51
2021/07/13 00:56:11;;;;;;;4.00;3.60;;;20.20;99.90;;;;;;4993515;28;20644;-51
2021/07/13 00:58:38;;;;;;;3.70;3.40;;;20.20;99.90;;;;;;4993725;28;20233;-51
2021/07/13 01:01:06;;;;;;;3.73;3.20;;;20.20;99.90;;;;;;4992263;28;20241;-51
2021/07/13 01:03:36;;;;;;;5.10;3.13;;;20.20;99.90;;;;;;4993905;28;20218;-51
2021/07/13 01:06:04;;;;;;;4.70;3.40;;;20.20;99.90;;;;;;4994366;28;20304;-51
2021/07/13 01:09:11;;;;;;;3.57;3.27;;;20.20;99.90;;;;;;4991805;28;20204;-51
2021/07/13 01:11:47;;;;;;;4.30;3.57;;;20.30;99.90;;;;;;4990521;28;20699;-51
2021/07/13 01:14:39;;;;;;;3.33;3.03;;;20.10;99.90;;;;;;4989622;28;20308;-51
2021/07/13 01:17:13;;;;;;;3.40;2.90;;;20.20;99.90;;;;;;4988681;28;20319;-51
2021/07/13 01:20:03;;;;;;;3.43;3.13;;;20.20;99.90;;;;;;4974132;28;20313;-51
2021/07/13 01:22:43;;;;;;;3.30;3.00;;;20.20;99.90;;;;;;4971503;28;20340;-51
2021/07/13 01:25:40;;;;;;;6.00;3.33;;;20.20;99.90;;;;;;4989254;28;20315;-51
2021/07/13 01:28:14;;;;;;;3.60;3.23;;;20.10;99.90;;;;;;4987385;28;21854;-51
2021/07/13 01:30:45;;;;;;;4.23;3.70;;;20.10;99.90;;;;;;4988002;28;20933;-51
2021/07/13 01:33:23;;;;;;;4.53;3.37;;;20.20;99.90;;;;;;4991097;28;20208;-51
2021/07/13 01:35:59;;;;;;;4.10;3.43;;;20.20;99.90;;;;;;4975904;28;20275;-51
2021/07/13 01:38:28;;;;;;;3.67;3.17;;;19.80;99.90;;;;;;4991067;28;20354;-51
2021/07/13 01:41:01;;;;;;;4.83;3.77;;;19.60;99.90;;;;;;4988124;28;20400;-51
2021/07/13 01:43:30;;;;;;;5.40;4.40;;;19.40;99.90;;;;;;4986544;28;20308;-51
2021/07/13 01:45:57;;;;;;;5.33;4.83;;;19.40;99.90;;;;;;4989197;28;20300;-51
2021/07/13 01:48:27;;;;;;;5.60;5.10;;;19.30;99.90;;;;;;4991890;28;20300;-51
2021/07/13 01:50:55;;;;;;;5.07;4.57;;;19.60;99.90;;;;;;4993782;28;20294;-51
2021/07/13 01:53:26;;;;;;;5.30;4.80;;;19.70;99.90;;;;;;4988145;28;20291;-51
2021/07/13 01:58:42;;;;;;;5.80;5.10;;;19.60;99.90;;;;;;4992686;28;20221;-51
2021/07/13 02:01:19;;;;;;;7.33;5.53;;;19.40;99.90;;;;;;4991129;28;20344;-51
2021/07/13 02:03:49;;;;;;;5.90;5.30;;;19.20;99.90;;;;;;4994220;28;20613;-51
2021/07/13 02:06:19;;;;;;;9.00;4.93;;;19.10;99.90;;;;;;4993656;28;20257;-51
2021/07/13 02:08:50;;;;;;;6.23;5.00;;;19.30;99.90;;;;;;4992735;28;20235;-51
2021/07/13 02:11:17;;;;;;;5.47;4.87;;;19.30;99.90;;;;;;4988520;28;20371;-51
2021/07/13 02:13:44;;;;;;;6.60;5.93;;;19.20;99.90;;;;;;4991112;28;21936;-51
2021/07/13 02:16:12;;;;;;;7.63;5.53;;;19.20;99.90;;;;;;4991552;28;20218;-51
2021/07/13 02:18:38;;;;;;;6.57;5.87;;;19.40;99.90;;;;;;4992079;28;20339;-51
2021/07/13 02:21:05;;;;;;;6.03;5.40;;;19.50;99.90;;;;;;4992465;28;20239;-51
2021/07/13 02:23:33;;;;;;;5.00;4.60;;;19.50;99.90;;;;;;4988253;28;20224;-51
2021/07/13 02:26:04;;;;;;;7.17;5.77;;;19.60;99.90;;;;;;4994206;28;20316;-51
2021/07/13 02:28:42;;;;;;;7.67;5.57;;;19.60;99.90;;;;;;4992785;28;20294;-51
2021/07/13 02:31:20;;;;;;;6.40;5.40;;;19.50;99.90;;;;;;4990565;28;20340;-51
2021/07/13 02:34:05;;;;;;;8.43;5.20;;;19.40;99.90;;;;;;4993337;28;20628;-51
2021/07/13 02:36:35;;;;;;;6.23;5.50;;;19.30;99.90;;;;;;4991717;28;20675;-51
2021/07/13 02:39:06;;;;;;;6.63;6.03;;;19.40;99.90;;;;;;4991430;28;20214;-51
2021/07/13 02:41:34;;;;;;;6.77;5.80;;;19.20;99.90;;;;;;4989195;28;20208;-51
2021/07/13 02:44:03;;;;;;;13.27;7.10;;;19.20;99.90;;;;;;4990897;28;20303;-51
2021/07/13 02:46:32;;;;;;;7.07;6.13;;;19.10;99.90;;;;;;4992495;28;20243;-51
2021/07/13 02:49:00;;;;;;;6.67;5.97;;;19.20;99.90;;;;;;4992396;28;20209;-51
2021/07/13 02:51:28;;;;;;;7.97;5.90;;;19.30;99.90;;;;;;4990344;28;20324;-51
2021/07/13 02:53:56;;;;;;;6.67;5.93;;;19.40;99.90;;;;;;4989117;28;20239;-51
2021/07/13 02:56:25;;;;;;;7.60;6.47;;;19.50;99.90;;;;;;4989606;28;20214;-51
2021/07/13 02:58:55;;;;;;;6.90;5.93;;;19.50;99.90;;;;;;4993537;28;20645;-51
2021/07/13 03:01:23;;;;;;;6.87;5.90;;;19.60;99.90;;;;;;4989377;28;20334;-51
2021/07/13 03:03:51;;;;;;;6.33;5.70;;;19.60;99.90;;;;;;4994518;28;20225;-51
2021/07/13 03:06:20;;;;;;;6.23;5.63;;;19.70;99.90;;;;;;4992259;28;21582;-51
2021/07/13 03:08:48;;;;;;;7.00;6.30;;;19.60;99.90;;;;;;4990955;28;20191;-51
2021/07/13 03:11:15;;;;;;;8.00;7.00;;;19.40;99.90;;;;;;4989951;28;20355;-51
2021/07/13 03:13:42;;;;;;;6.57;5.90;;;19.30;99.90;;;;;;4990399;28;20344;-51
2021/07/13 03:16:10;;;;;;;7.10;6.40;;;19.10;99.90;;;;;;4990598;28;20214;-51
2021/07/13 03:18:38;;;;;;;7.87;6.70;;;19.20;99.90;;;;;;4994503;28;20583;-51
2021/07/13 03:21:06;;;;;;;9.90;6.90;;;19.30;99.90;;;;;;4989754;28;20293;-51
2021/07/13 03:23:39;;;;;;;9.00;7.07;;;19.20;99.90;;;;;;4992469;28;20204;-51
2021/07/13 03:26:07;;;;;;;9.07;7.50;;;19.10;99.90;;;;;;4992320;28;20270;-51
2021/07/13 03:28:35;;;;;;;7.67;6.80;;;19.10;99.90;;;;;;4991424;28;20207;-51
2021/07/13 03:31:01;;;;;;;7.33;6.23;;;19.20;99.90;;;;;;4989062;28;20252;-51
2021/07/13 03:33:30;;;;;;;8.93;6.70;;;19.30;99.90;;;;;;4991689;28;20529;-51
2021/07/13 03:35:57;;;;;;;9.20;6.70;;;19.40;99.90;;;;;;4992120;28;20276;-51
2021/07/13 03:38:25;;;;;;;8.87;7.17;;;19.50;99.90;;;;;;4994083;28;20210;-51
2021/07/13 03:40:52;;;;;;;9.43;7.07;;;19.40;99.90;;;;;;4991084;28;20308;-51
2021/07/13 03:43:19;;;;;;;7.50;6.70;;;19.50;99.90;;;;;;4992312;28;20232;-51
2021/07/13 03:45:46;;;;;;;8.80;6.70;;;19.50;99.90;;;;;;4992693;28;20304;-51
2021/07/13 03:48:13;;;;;;;8.27;7.23;;;19.40;99.90;;;;;;4993206;28;20209;-51
2021/07/13 03:50:43;;;;;;;7.33;6.63;;;19.40;99.90;;;;;;4991150;28;20231;-51
2021/07/13 03:53:13;;;;;;;11.43;7.43;;;19.40;99.90;;;;;;4989870;28;20627;-51
2021/07/13 03:55:42;;;;;;;8.43;6.87;;;19.50;99.90;;;;;;4993406;28;20237;-51
2021/07/13 03:58:10;;;;;;;8.33;7.33;;;19.60;99.90;;;;;;4991984;28;20301;-51
2021/07/13 04:00:37;;;;;;;12.07;7.90;;;19.60;99.90;;;;;;4990477;28;20343;-50
2021/07/13 04:03:04;;;;;;;9.13;7.57;;;19.60;99.90;;;;;;4993485;28;20337;-52
2021/07/13 04:05:31;;;;;;;7.00;6.37;;;19.50;99.90;;;;;;4994710;28;20224;-50
2021/07/13 04:07:58;;;;;;;8.63;6.97;;;19.50;99.90;;;;;;4996519;28;20302;-52
2021/07/13 04:10:25;;;;;;;9.73;7.23;;;19.30;99.90;;;;;;4992640;28;20297;-52
2021/07/13 04:12:51;;;;;;;10.10;8.30;;;19.40;99.90;;;;;;4993887;28;20293;-50
2021/07/13 04:15:19;;;;;;;13.30;9.33;;;19.50;99.90;;;;;;4992677;28;20245;-50
2021/07/13 04:17:46;;;;;;;14.30;11.00;;;19.60;99.90;;;;;;4991448;28;20767;-51
2021/07/13 04:20:13;;;;;;;14.07;10.97;;;19.70;99.90;;;;;;4999310;28;20302;-50
2021/07/13 04:22:43;;;;;;;14.40;11.83;;;19.80;99.90;;;;;;4992126;28;20297;-50
2021/07/13 04:25:12;;;;;;;15.53;12.70;;;19.80;99.90;;;;;;4995371;28;20608;-50
2021/07/13 04:27:41;;;;;;;17.50;11.97;;;19.90;99.90;;;;;;4995129;28;20239;-50
2021/07/13 04:30:08;;;;;;;16.77;13.20;;;19.90;99.90;;;;;;4994615;28;20608;-50
2021/07/13 04:32:35;;;;;;;18.37;13.40;;;19.80;99.90;;;;;;4992492;28;20237;-50
2021/07/13 04:35:03;;;;;;;15.77;12.77;;;19.70;99.90;;;;;;4994198;28;20216;-50
2021/07/13 04:37:32;;;;;;;16.07;13.17;;;19.70;99.90;;;;;;4994980;28;20336;-50
2021/07/13 04:39:59;;;;;;;15.03;12.40;;;19.70;99.90;;;;;;4993407;28;20234;-50
2021/07/13 04:42:26;;;;;;;14.60;12.43;;;19.80;99.90;;;;;;4993650;28;20238;-50
2021/07/13 04:44:53;;;;;;;16.30;12.83;;;19.90;99.90;;;;;;4995172;28;20313;-50
2021/07/13 04:47:20;;;;;;;17.37;13.20;;;20.00;99.90;;;;;;4996847;28;20197;-50
2021/07/13 04:49:47;;;;;;;16.70;12.63;;;20.00;99.90;;;;;;4994471;28;20371;-50
2021/07/13 04:52:13;;;;;;;14.13;11.77;;;20.00;99.90;;;;;;4995206;28;20278;-51
2021/07/13 04:54:40;;;;;;;15.10;12.33;;;20.00;99.90;;;;;;4992566;28;20229;-51
2021/07/13 04:57:07;;;;;;;16.53;13.10;;;20.00;99.90;;;;;;4993700;28;20584;-50
2021/07/13 04:59:34;;;;;;;16.63;13.00;;;19.80;99.90;;;;;;4992539;28;20235;-50
2021/07/13 05:02:00;;;;;;;13.10;11.50;;;19.90;99.90;;;;;;4991601;28;20742;-51
2021/07/13 05:04:28;;;;;;;15.20;12.53;;;19.90;99.90;;;;;;4993149;28;20365;-51
2021/07/13 05:06:55;;;;;;;14.73;12.07;;;19.90;99.90;;;;;;4990139;28;20254;-51
2021/07/13 05:09:22;;;;;;;15.17;12.30;;;20.00;99.90;;;;;;4988219;28;20920;-51
2021/07/13 05:11:49;;;;;;;14.10;12.57;;;19.90;99.90;;;;;;4992240;28;20279;-50
2021/07/13 05:14:16;;;;;;;14.10;12.37;;;20.00;99.90;;;;;;4991366;28;20223;-50
2021/07/13 05:16:43;;;;;;;15.80;14.07;;;20.00;99.90;;;;;;4992684;28;20295;-51
2021/07/13 05:19:13;;;;;;;17.77;14.57;;;20.10;99.90;;;;;;4992174;28;21886;-50
2021/07/13 05:21:42;;;;;;;17.63;13.47;;;20.10;99.90;;;;;;4993711;28;20306;-50
2021/07/13 05:24:08;;;;;;;16.63;14.23;;;20.10;99.90;;;;;;4991437;28;20324;-50
2021/07/13 05:26:35;;;;;;;20.17;14.33;;;19.90;99.90;;;;;;4994278;28;20260;-51
2021/07/13 05:29:04;;;;;;;18.80;15.70;;;19.90;99.90;;;;;;4989866;28;20236;-50
2021/07/13 05:31:32;;;;;;;20.03;15.83;;;19.90;99.90;;;;;;4993607;28;20321;-51
2021/07/13 05:33:59;;;;;;;23.03;18.20;;;20.00;99.90;;;;;;4993947;28;20194;-50
2021/07/13 05:36:26;;;;;;;26.87;19.03;;;19.90;99.90;;;;;;4995760;28;20332;-50
2021/07/13 05:38:53;;;;;;;25.50;19.53;;;19.80;99.90;;;;;;4993888;28;20288;-50
2021/07/13 05:41:24;;;;;;;29.37;21.37;;;19.80;99.90;;;;;;4990993;28;20209;-51
2021/07/13 05:43:52;;;;;;;31.57;22.33;;;19.60;99.90;;;;;;4992312;28;20341;-50
2021/07/13 05:46:18;;;;;;;30.67;22.23;;;19.50;99.90;;;;;;4993061;28;20649;-50
2021/07/13 05:48:46;;;;;;;36.63;24.23;;;19.50;99.90;;;;;;4989524;28;20587;-51
2021/07/13 05:51:13;;;;;;;33.07;22.63;;;19.50;99.90;;;;;;4989886;28;20344;-50
2021/07/13 05:53:40;;;;;;;37.23;22.73;;;19.50;99.90;;;;;;4989644;28;20608;-51
2021/07/13 05:56:08;;;;;;;35.37;24.83;;;19.50;99.90;;;;;;4991809;28;20756;-51
2021/07/13 05:58:35;;;;;;;39.10;25.13;;;19.50;99.90;;;;;;4994468;28;20672;-50
2021/07/13 06:01:04;;;;;;;37.00;25.53;;;19.50;99.90;;;;;;4984480;28;20359;-50
2021/07/13 06:03:31;;;;;;;38.77;26.20;;;19.50;99.90;;;;;;4994730;28;20256;-50
2021/07/13 06:05:58;;;;;;;38.93;26.53;;;19.50;99.90;;;;;;4992719;28;20267;-51
2021/07/13 06:08:25;;;;;;;40.93;26.10;;;19.70;99.90;;;;;;4991624;28;20295;-50
2021/07/13 06:10:52;;;;;;;36.53;24.47;;;19.90;99.90;;;;;;4992175;28;20297;-50
2021/07/13 06:13:19;;;;;;;39.33;26.33;;;20.00;99.90;;;;;;4991806;28;20225;-50
2021/07/13 06:15:46;;;;;;;39.30;26.60;;;19.80;99.90;;;;;;4990283;28;20657;-50
2021/07/13 06:18:21;;;;;;;40.53;26.77;;;19.80;99.90;;;;;;4989375;28;20209;-50
2021/07/13 06:20:48;;;;;;;39.67;26.33;;;19.80;99.90;;;;;;4990935;28;20291;-50
2021/07/13 06:23:15;;;;;;;40.57;27.40;;;19.70;99.90;;;;;;4988787;28;20861;-50
2021/07/13 06:25:42;;;;;;;42.63;27.73;;;19.90;99.90;;;;;;4985922;28;20643;-50
2021/07/13 06:28:10;;;;;;;39.10;26.17;;;19.80;99.90;;;;;;4992815;28;20201;-51
2021/07/13 06:30:38;;;;;;;39.27;26.23;;;19.90;99.90;;;;;;4982394;28;20376;-50
2021/07/13 06:33:05;;;;;;;42.10;27.17;;;20.10;99.90;;;;;;4988052;28;20558;-51
2021/07/13 06:35:32;;;;;;;39.50;25.47;;;20.10;99.90;;;;;;4984382;28;20280;-50
2021/07/13 06:37:59;;;;;;;42.13;27.80;;;20.10;99.90;;;;;;4989311;28;20260;-50
2021/07/13 06:40:27;;;;;;;40.53;27.13;;;20.30;99.90;;;;;;4992676;28;20713;-50
2021/07/13 06:42:54;;;;;;;41.43;26.50;;;20.20;99.90;;;;;;4988687;28;20255;-51
2021/07/13 06:45:21;;;;;;;46.23;28.63;;;20.30;99.90;;;;;;4990916;28;20582;-50
2021/07/13 06:47:53;;;;;;;48.07;29.37;;;20.20;99.90;;;;;;4991396;28;20618;-51
2021/07/13 06:50:21;;;;;;;46.70;30.67;;;20.20;99.90;;;;;;4989522;28;20207;-50
2021/07/13 06:52:47;;;;;;;50.97;29.17;;;20.00;99.90;;;;;;4988548;28;20327;-51
2021/07/13 06:55:14;;;;;;;52.27;30.70;;;20.00;99.90;;;;;;4985552;28;20304;-50
2021/07/13 06:57:41;;;;;;;49.67;31.93;;;20.00;99.90;;;;;;5002977;28;20838;-50
2021/07/13 07:00:09;;;;;;;46.67;30.40;;;20.20;99.90;;;;;;4994449;28;20209;-50
2021/07/13 07:02:36;;;;;;;53.77;32.80;;;20.30;99.90;;;;;;4991312;28;20268;-50
2021/07/13 07:05:04;;;;;;;46.80;30.87;;;20.30;99.90;;;;;;4992933;28;20654;-51
2021/07/13 07:07:31;;;;;;;46.43;30.53;;;20.10;99.90;;;;;;4991877;28;20327;-51
2021/07/13 07:09:58;;;;;;;47.17;30.97;;;20.00;99.90;;;;;;4996758;28;20221;-51
2021/07/13 07:12:25;;;;;;;48.20;30.93;;;20.00;99.90;;;;;;4991053;28;20232;-51
2021/07/13 07:14:52;;;;;;;49.23;32.20;;;20.00;99.90;;;;;;4991426;28;20210;-51
2021/07/13 07:17:19;;;;;;;49.43;30.73;;;20.10;99.90;;;;;;4992698;28;20348;-51
2021/07/13 07:19:45;;;;;;;45.67;30.77;;;20.10;99.90;;;;;;4992981;28;20244;-51
2021/07/13 07:22:12;;;;;;;49.30;30.93;;;20.20;99.90;;;;;;4990243;28;20231;-51
2021/07/13 07:24:39;;;;;;;45.97;29.80;;;20.10;99.90;;;;;;4990539;28;20269;-51
2021/07/13 07:27:06;;;;;;;50.30;31.93;;;20.30;99.90;;;;;;4989628;28;20293;-51
2021/07/13 07:29:33;;;;;;;49.40;32.97;;;20.30;99.90;;;;;;4987821;28;20311;-51
2021/07/13 07:31:59;;;;;;;54.60;38.50;;;20.30;99.90;;;;;;4987516;28;20575;-49
2021/07/13 07:34:27;;;;;;;49.07;31.40;;;20.20;99.90;;;;;;4995108;28;20201;-50
2021/07/13 07:36:54;;;;;;;46.83;31.10;;;20.30;99.90;;;;;;4993009;28;20214;-48
2021/07/13 07:39:21;;;;;;;45.83;30.43;;;20.40;99.90;;;;;;4997970;28;20237;-48
2021/07/13 07:41:48;;;;;;;47.97;30.80;;;20.40;99.90;;;;;;4994942;28;20202;-48
2021/07/13 07:44:15;;;;;;;46.90;31.87;;;20.60;99.90;;;;;;4994882;28;20229;-48
2021/07/13 07:46:42;;;;;;;50.07;31.23;;;20.50;99.90;;;;;;4991475;28;20334;-48
2021/07/13 07:49:09;;;;;;;48.97;31.33;;;20.60;99.90;;;;;;4994876;28;20216;-48
2021/07/13 07:51:36;;;;;;;45.93;30.30;;;20.60;99.90;;;;;;4994384;28;20232;-48
2021/07/13 07:54:03;;;;;;;49.93;31.93;;;20.70;99.90;;;;;;4994546;28;20691;-49
2021/07/13 07:56:30;;;;;;;46.10;30.30;;;20.80;99.90;;;;;;4992552;28;20288;-48
2021/07/13 07:58:59;;;;;;;45.07;29.37;;;20.90;99.90;;;;;;4995214;28;20252;-48
2021/07/13 08:01:26;;;;;;;42.30;28.70;;;20.80;99.90;;;;;;4992623;28;20708;-51
2021/07/13 08:03:53;;;;;;;43.43;29.47;;;20.80;99.90;;;;;;4993573;28;20205;-48
2021/07/13 08:06:19;;;;;;;43.77;29.57;;;20.90;99.90;;;;;;4994276;28;20253;-48
2021/07/13 08:08:46;;;;;;;45.53;29.40;;;20.90;99.90;;;;;;4995873;28;20450;-48
2021/07/13 08:11:13;;;;;;;43.87;29.00;;;20.80;99.90;;;;;;4992593;28;20226;-48
2021/07/13 08:13:40;;;;;;;46.53;28.47;;;20.90;99.90;;;;;;4992909;28;20945;-48
2021/07/13 08:16:07;;;;;;;42.60;29.73;;;21.00;99.90;;;;;;4995138;28;20314;-48
2021/07/13 08:18:34;;;;;;;45.67;29.57;;;21.00;99.90;;;;;;4992601;28;20214;-49
2021/07/13 08:21:01;;;;;;;49.92;35.50;;;20.90;99.90;;;;;;4991927;28;20469;-51
2021/07/13 08:23:28;;;;;;;45.20;30.30;;;21.00;99.90;;;;;;4991643;28;20911;-51
2021/07/13 08:25:55;;;;;;;45.63;30.97;;;20.90;99.90;;;;;;4991931;28;20725;-51
2021/07/13 08:28:22;;;;;;;47.63;30.90;;;20.90;99.90;;;;;;4994858;28;20689;-53
2021/07/13 08:30:49;;;;;;;44.50;29.53;;;21.00;99.90;;;;;;4992937;28;20392;-50
2021/07/13 08:33:16;;;;;;;46.60;28.97;;;21.00;99.90;;;;;;4992159;28;20300;-51
2021/07/13 08:35:42;;;;;;;44.63;30.00;;;21.10;99.90;;;;;;4991242;28;20212;-51
2021/07/13 08:38:09;;;;;;;42.40;30.13;;;21.10;99.90;;;;;;4992736;28;20210;-51
2021/07/13 08:40:36;;;;;;;46.00;30.37;;;21.00;99.90;;;;;;4993779;28;20241;-50
2021/07/13 08:43:03;;;;;;;43.33;30.70;;;21.00;99.90;;;;;;4993814;28;20685;-50
2021/07/13 08:45:31;;;;;;;45.47;29.10;;;21.00;99.90;;;;;;4992641;28;20348;-51
2021/07/13 08:47:58;;;;;;;50.07;31.63;;;21.00;99.90;;;;;;4991625;28;20283;-51
2021/07/13 08:50:25;;;;;;;47.30;30.87;;;21.00;99.90;;;;;;4996673;28;20291;-51
2021/07/13 08:52:52;;;;;;;45.07;31.37;;;20.90;99.90;;;;;;4990427;28;20766;-51
2021/07/13 08:55:20;;;;;;;47.47;31.40;;;21.00;99.90;;;;;;4990504;28;20344;-50
2021/07/13 08:57:47;;;;;;;48.70;31.53;;;20.90;99.90;;;;;;4992671;28;20328;-50
2021/07/13 09:00:18;;;;;;;45.17;30.93;;;21.00;99.90;;;;;;4993743;28;20618;-50
2021/07/13 09:03:19;;;;;;;48.47;30.63;;;20.90;99.90;;;;;;4991695;28;20326;-50
2021/07/13 09:05:57;;;;;;;47.20;30.87;;;20.80;99.90;;;;;;4990664;28;20787;-50
2021/07/13 09:08:25;;;;;;;45.63;30.77;;;20.70;99.90;;;;;;4993319;28;20205;-50
2021/07/13 09:11:03;;;;;;;50.23;31.73;;;20.70;99.90;;;;;;4994871;28;20638;-51
2021/07/13 09:13:40;;;;;;;50.70;33.23;;;20.70;99.90;;;;;;4994952;28;20208;-51
2021/07/13 09:16:15;;;;;;;53.63;32.40;;;20.60;99.90;;;;;;4995594;28;20281;-50
2021/07/13 09:18:46;;;;;;;53.67;32.63;;;20.60;99.90;;;;;;4997310;28;20270;-50
2021/07/13 09:21:15;;;;;;;53.87;33.60;;;20.60;99.90;;;;;;4996834;28;20203;-51
2021/07/13 09:24:16;;;;;;;51.50;34.07;;;20.50;99.90;;;;;;4998340;28;20320;-50
2021/07/13 09:26:54;;;;;;;53.33;33.77;;;20.60;99.90;;;;;;4996508;28;20309;-51
2021/07/13 09:29:44;;;;;;;57.90;35.33;;;20.40;99.90;;;;;;4995599;28;20206;-51
2021/07/13 09:32:26;;;;;;;60.80;36.90;;;20.50;99.90;;;;;;4995089;28;20305;-51
2021/07/13 09:35:10;;;;;;;55.17;33.73;;;20.50;99.90;;;;;;4993524;28;20678;-51
2021/07/13 09:37:43;;;;;;;52.00;34.53;;;20.50;99.90;;;;;;4995901;28;20202;-50
2021/07/13 09:40:13;;;;;;;52.07;33.67;;;20.50;99.90;;;;;;4995037;28;20207;-50
2021/07/13 09:42:50;;;;;;;50.57;31.13;;;20.60;99.90;;;;;;4993569;28;20381;-51
2021/07/13 09:45:20;;;;;;;48.13;30.07;;;20.60;99.90;;;;;;4995362;28;20257;-51
2021/07/13 09:47:50;;;;;;;45.47;27.50;;;20.70;99.90;;;;;;4994171;28;20286;-51
2021/07/13 09:50:36;;;;;;;45.93;28.40;;;20.80;99.90;;;;;;4994001;28;20300;-51
2021/07/13 09:53:05;;;;;;;42.90;27.20;;;20.70;99.90;;;;;;4995293;28;20202;-51
2021/07/13 09:55:32;;;;;;;42.00;27.77;;;20.70;99.90;;;;;;4996391;28;20238;-51
2021/07/13 09:58:15;;;;;;;45.53;27.73;;;20.60;99.90;;;;;;4996837;28;20373;-51
2021/07/13 10:00:44;;;;;;;38.90;25.97;;;20.60;99.90;;;;;;4996596;28;20314;-51
2021/07/13 10:03:14;;;;;;;41.67;27.67;;;20.60;99.90;;;;;;4992852;28;20271;-50
2021/07/13 10:05:44;;;;;;;40.10;26.83;;;20.70;99.90;;;;;;4994402;28;20262;-51
2021/07/13 10:08:15;;;;;;;38.70;25.47;;;20.70;99.90;;;;;;4996429;28;20283;-51
2021/07/13 10:10:44;;;;;;;34.03;23.97;;;20.60;99.90;;;;;;4994212;28;20344;-51
2021/07/13 10:13:12;;;;;;;35.83;25.63;;;20.60;99.90;;;;;;4991748;28;20201;-51
2021/07/13 10:15:40;;;;;;;40.37;26.17;;;20.70;99.90;;;;;;4995742;28;20238;-51
2021/07/13 10:18:08;;;;;;;40.93;26.03;;;20.70;99.90;;;;;;4996369;28;20894;-51
2021/07/13 10:20:36;;;;;;;36.40;24.70;;;20.80;99.90;;;;;;4990480;28;20233;-51
2021/07/13 10:23:10;;;;;;;39.47;25.17;;;20.90;99.90;;;;;;4995189;28;20202;-51
2021/07/13 10:25:40;;;;;;;36.10;23.87;;;20.80;99.90;;;;;;4992288;28;20261;-49
2021/07/13 10:28:08;;;;;;;37.87;23.57;;;20.80;99.90;;;;;;4988676;28;20219;-52
2021/07/13 10:30:42;;;;;;;37.90;23.63;;;20.80;99.90;;;;;;4991370;28;20218;-52
2021/07/13 10:33:37;;;;;;;33.70;22.50;;;20.90;99.90;;;;;;4990451;28;20349;-52
2021/07/13 10:36:40;;;;;;;31.53;21.43;;;21.00;99.90;;;;;;4989753;28;20648;-52
2021/07/13 10:39:30;;;;;;;32.60;21.33;;;20.90;99.90;;;;;;4988350;28;20307;-52
2021/07/13 10:41:59;;;;;;;29.93;20.83;;;20.80;99.90;;;;;;4988891;28;20305;-52
2021/07/13 10:44:47;;;;;;;32.87;21.23;;;20.70;99.90;;;;;;4992483;28;20283;-51
2021/07/13 10:47:22;;;;;;;36.00;22.40;;;20.60;99.90;;;;;;4989120;28;20700;-51
2021/07/13 10:50:18;;;;;;;33.00;22.43;;;20.60;99.90;;;;;;4990646;28;20205;-51
2021/07/13 10:53:05;;;;;;;30.07;21.33;;;20.60;99.90;;;;;;4990264;28;20296;-52
2021/07/13 10:55:32;;;;;;;32.40;21.93;;;20.70;99.90;;;;;;4989519;28;20213;-51
2021/07/13 10:58:17;;;;;;;27.77;19.83;;;20.80;99.90;;;;;;4992734;28;20307;-51
2021/07/13 11:00:50;;;;;;;28.50;20.27;;;20.80;99.90;;;;;;4986143;28;22251;-51
2021/07/13 11:03:32;;;;;;;31.63;20.63;;;20.80;99.90;;;;;;4997622;28;20330;-51
2021/07/13 11:06:00;;;;;;;29.00;20.87;;;20.80;99.90;;;;;;4991567;28;20320;-51
2021/07/13 11:09:01;;;;;;;31.80;20.67;;;20.90;99.90;;;;;;4994050;28;20338;-51
2021/07/13 11:11:27;;;;;;;32.37;20.47;;;21.00;99.90;;;;;;4985722;28;20309;-51
2021/07/13 11:13:58;;;;;;;30.87;21.40;;;21.00;99.90;;;;;;4988282;28;20719;-51
2021/07/13 11:16:32;;;;;;;29.67;20.33;;;21.00;99.90;;;;;;4988873;28;20657;-51
2021/07/13 11:19:03;;;;;;;29.53;21.17;;;21.00;99.90;;;;;;4991686;28;20243;-51
2021/07/13 11:21:37;;;;;;;32.90;22.97;;;20.80;99.90;;;;;;4991582;28;20286;-51
2021/07/13 11:24:05;;;;;;;30.47;22.13;;;20.80;99.90;;;;;;4991060;28;20199;-51
2021/07/13 11:26:45;;;;;;;32.67;24.00;;;20.90;99.90;;;;;;4991574;28;20214;-51
2021/07/13 11:29:21;;;;;;;34.47;23.00;;;20.90;99.90;;;;;;4989725;28;20312;-51
2021/07/13 11:32:03;;;;;;;33.53;21.73;;;20.80;99.90;;;;;;4994422;28;20504;-51
2021/07/13 11:34:40;;;;;;;37.07;23.33;;;20.80;99.90;;;;;;4981153;28;20295;-51
2021/07/13 11:37:08;;;;;;;33.20;22.93;;;20.70;99.90;;;;;;5002948;28;20425;-51
2021/07/13 11:39:38;;;;;;;38.97;24.03;;;20.80;99.90;;;;;;4988145;28;20281;-51
2021/07/13 11:42:08;;;;;;;31.40;22.40;;;20.90;99.90;;;;;;4991555;28;20278;-51
2021/07/13 11:44:41;;;;;;;33.97;22.63;;;20.90;99.90;;;;;;4994404;28;20230;-50
2021/07/13 11:47:15;;;;;;;35.10;23.73;;;20.90;99.90;;;;;;4991770;28;20643;-51
2021/07/13 11:49:43;;;;;;;35.77;24.43;;;20.90;99.90;;;;;;4990526;28;20231;-51
2021/07/13 11:52:12;;;;;;;37.00;25.27;;;20.80;99.90;;;;;;4989481;28;20203;-51
2021/07/13 11:54:41;;;;;;;40.57;26.10;;;20.80;99.90;;;;;;4988835;28;20200;-57
2021/07/13 11:57:10;;;;;;;41.37;24.70;;;20.70;99.90;;;;;;4990941;28;20768;-51
2021/07/13 11:59:38;;;;;;;35.17;24.77;;;20.90;99.90;;;;;;4990718;28;20294;-51
2021/07/13 12:02:07;;;;;;;35.20;23.60;;;20.90;99.90;;;;;;4990417;28;20370;-51
2021/07/13 12:04:41;;;;;;;42.33;24.13;;;20.80;99.90;;;;;;4991688;28;20281;-51
2021/07/13 12:07:08;;;;;;;36.30;24.90;;;20.80;99.90;;;;;;4994153;28;20663;-51
2021/07/13 12:09:37;;;;;;;35.23;23.73;;;20.80;99.90;;;;;;4994985;28;20215;-56
2021/07/13 12:12:22;;;;;;;35.90;23.67;;;20.80;99.90;;;;;;4992588;28;20257;-52
2021/07/13 12:14:54;;;;;;;32.33;22.07;;;20.90;99.90;;;;;;4993221;28;20284;-52
2021/07/13 12:17:22;;;;;;;30.73;21.33;;;21.00;99.90;;;;;;4990058;28;20576;-51
2021/07/13 12:19:52;;;;;;;32.00;21.70;;;21.00;99.90;;;;;;4995260;28;20309;-51
2021/07/13 12:22:21;;;;;;;32.90;22.00;;;21.00;99.90;;;;;;4993280;28;20297;-51
2021/07/13 12:24:49;;;;;;;37.57;22.10;;;21.00;99.90;;;;;;4995495;28;20204;-51
2021/07/13 12:27:19;;;;;;;33.47;22.60;;;21.10;99.90;;;;;;4992722;28;20232;-51
2021/07/13 12:29:53;;;;;;;30.20;20.13;;;21.10;99.90;;;;;;4993914;28;20222;-51
2021/07/13 12:32:25;;;;;;;29.63;21.27;;;21.00;99.90;;;;;;4988477;28;20229;-51
2021/07/13 12:34:53;;;;;;;27.37;20.17;;;21.10;99.90;;;;;;4995074;28;20208;-51
2021/07/13 12:37:29;;;;;;;32.50;21.07;;;21.10;99.90;;;;;;4992826;28;20533;-51
2021/07/13 12:40:01;;;;;;;29.73;21.10;;;21.20;99.90;;;;;;4994104;28;20807;-51
2021/07/13 12:42:34;;;;;;;28.73;20.43;;;21.10;99.90;;;;;;4990487;28;20209;-51
2021/07/13 12:45:09;;;;;;;32.50;20.20;;;21.20;99.90;;;;;;4991968;28;20309;-51
2021/07/13 12:47:47;;;;;;;26.83;20.50;;;21.40;99.90;;;;;;4997200;28;20302;-52
2021/07/13 12:50:27;;;;;;;30.13;21.07;;;21.50;99.90;;;;;;4994126;28;20601;-52
2021/07/13 12:53:05;;;;;;;26.80;19.53;;;21.40;99.90;;;;;;4993984;28;20252;-52